createdAt,value
2018-09-05T00:01:06.128Z,55.00
2018-09-05T00:03:30.001Z,54.73
2018-09-05T00:05:53.833Z,54.61
2018-09-05T00:08:17.714Z,55.55
2018-09-05T00:10:41.585Z,55.51
2018-09-05T00:13:05.802Z,55.27
2018-09-05T00:15:29.655Z,55.47
2018-09-05T00:17:53.607Z,55.26
2018-09-05T00:20:17.437Z,55.89
2018-09-05T00:22:41.359Z,56.31
2018-09-05T00:25:05.219Z,56.72
2018-09-05T00:27:29.096Z,56.35
2018-09-05T00:29:53.051Z,56.70
2018-09-05T00:32:17.099Z,57.42
2018-09-05T00:34:40.982Z,57.29
2018-09-05T00:37:04.958Z,57.51
2018-09-05T00:39:28.859Z,57.35
2018-09-05T00:41:52.751Z,57.68
2018-09-05T00:44:16.650Z,57.33
2018-09-05T00:46:40.527Z,57.77
2018-09-05T00:49:04.435Z,58.19
2018-09-05T00:51:28.336Z,57.79
2018-09-05T00:53:52.268Z,57.96
2018-09-05T00:56:16.194Z,57.75
2018-09-05T00:58:40.102Z,57.90
2018-09-05T01:01:04.018Z,57.85
2018-09-05T01:03:28.914Z,58.97
2018-09-05T01:05:52.929Z,58.84
2018-09-05T01:08:17.011Z,58.77
2018-09-05T01:10:40.878Z,58.52
2018-09-05T01:13:04.733Z,58.20
2018-09-05T01:15:28.629Z,58.12
2018-09-05T01:17:52.538Z,57.89
2018-09-05T01:20:16.412Z,58.97
2018-09-05T01:22:40.319Z,59.34
2018-09-05T01:25:04.216Z,58.73
2018-09-05T01:27:28.133Z,59.44
2018-09-05T01:29:51.999Z,59.52
2018-09-05T01:32:15.876Z,59.16
2018-09-05T01:34:40.378Z,59.04
2018-09-05T01:37:04.262Z,58.92
2018-09-05T01:39:28.151Z,58.93
2018-09-05T01:41:51.988Z,59.47
2018-09-05T01:44:15.908Z,58.93
2018-09-05T01:46:39.794Z,59.80
2018-09-05T01:49:03.672Z,59.76
2018-09-05T01:51:29.879Z,59.38
2018-09-05T01:53:53.808Z,59.48
2018-09-05T01:56:17.686Z,59.81
2018-09-05T01:58:41.596Z,59.77
2018-09-05T02:01:05.437Z,59.36
2018-09-05T02:03:29.324Z,60.45
2018-09-05T02:05:53.198Z,60.09
2018-09-05T02:08:17.142Z,60.79
2018-09-05T02:10:40.963Z,61.07
2018-09-05T02:13:04.911Z,60.40
2018-09-05T02:15:28.766Z,60.49
2018-09-05T02:17:52.886Z,60.03
2018-09-05T02:20:16.739Z,60.21
2018-09-05T02:22:40.618Z,60.32
2018-09-05T02:25:04.495Z,60.73
2018-09-05T02:27:28.361Z,60.64
2018-09-05T02:29:52.351Z,60.95
2018-09-05T02:32:16.197Z,61.22
2018-09-05T02:34:40.080Z,61.60
2018-09-05T02:37:03.940Z,60.68
2018-09-05T02:39:27.819Z,62.21
2018-09-05T02:41:51.689Z,61.66
2018-09-05T02:44:20.264Z,62.11
2018-09-05T02:46:44.137Z,61.67
2018-09-05T02:49:08.023Z,61.43
2018-09-05T02:51:31.920Z,61.67
2018-09-05T02:53:55.814Z,61.14
2018-09-05T02:56:22.602Z,61.54
2018-09-05T02:58:47.194Z,61.47
2018-09-05T03:01:11.464Z,61.52
2018-09-05T03:03:35.341Z,61.97
2018-09-05T03:05:59.292Z,61.92
2018-09-05T03:08:23.300Z,62.39
2018-09-05T03:10:47.185Z,63.62
2018-09-05T03:13:11.039Z,64.47
2018-09-05T03:15:34.934Z,64.03
2018-09-05T03:17:58.808Z,63.26
2018-09-05T03:20:22.762Z,62.87
2018-09-05T03:22:46.752Z,62.65
2018-09-05T03:25:10.629Z,62.30
2018-09-05T03:27:34.492Z,63.45
2018-09-05T03:29:58.376Z,63.06
2018-09-05T03:32:22.519Z,62.42
2018-09-05T03:34:46.110Z,61.82
2018-09-05T03:37:10.025Z,61.54
2018-09-05T03:39:33.851Z,61.74
2018-09-05T03:41:57.756Z,62.72
2018-09-05T03:44:21.643Z,63.52
2018-09-05T03:46:45.497Z,63.42
2018-09-05T03:49:09.390Z,63.44
2018-09-05T03:51:33.259Z,63.31
2018-09-05T03:53:57.142Z,64.15
2018-09-05T03:56:20.989Z,64.89
2018-09-05T03:58:44.850Z,64.80
2018-09-05T04:01:08.729Z,63.64
2018-09-05T04:03:32.581Z,64.71
2018-09-05T04:05:56.465Z,63.92
2018-09-05T04:08:20.347Z,63.55
2018-09-05T04:10:44.231Z,62.68
2018-09-05T04:13:08.123Z,63.22
2018-09-05T04:15:32.000Z,63.01
2018-09-05T04:17:55.827Z,63.82
2018-09-05T04:20:19.792Z,63.90
2018-09-05T04:22:43.659Z,63.85
2018-09-05T04:25:07.546Z,65.43
2018-09-05T04:27:31.499Z,66.22
2018-09-05T04:29:55.377Z,66.56
2018-09-05T04:32:19.205Z,67.21
2018-09-05T04:34:43.058Z,68.02
2018-09-05T04:37:07.031Z,67.75
2018-09-05T04:39:30.927Z,68.69
2018-09-05T04:41:54.803Z,69.41
2018-09-05T04:44:18.695Z,69.46
2018-09-05T04:46:42.582Z,69.20
2018-09-05T04:49:06.476Z,69.20
2018-09-05T04:51:30.620Z,68.79
2018-09-05T04:53:54.517Z,68.48
2018-09-05T04:56:18.433Z,67.85
2018-09-05T04:58:42.318Z,68.01
2018-09-05T05:01:06.321Z,68.21
2018-09-05T05:03:30.210Z,68.42
2018-09-05T05:05:54.088Z,68.32
2018-09-05T05:08:17.976Z,69.84
2018-09-05T05:10:41.979Z,69.53
2018-09-05T05:13:06.066Z,68.96
2018-09-05T05:15:29.959Z,69.37
2018-09-05T05:17:53.849Z,69.31
2018-09-05T05:20:17.741Z,69.40
2018-09-05T05:22:41.605Z,69.09
2018-09-05T05:25:05.584Z,69.18
2018-09-05T05:27:29.475Z,68.94
2018-09-05T05:29:53.380Z,68.64
2018-09-05T05:32:17.297Z,69.90
2018-09-05T05:34:41.348Z,68.67
2018-09-05T05:37:05.466Z,68.98
2018-09-05T05:39:29.531Z,68.47
2018-09-05T05:41:53.435Z,68.58
2018-09-05T05:44:17.357Z,68.73
2018-09-05T05:46:41.270Z,68.97
2018-09-05T05:49:05.215Z,68.81
2018-09-05T05:51:29.108Z,68.05
2018-09-05T05:53:53.016Z,68.71
2018-09-05T05:56:16.852Z,68.65
2018-09-05T05:58:40.919Z,68.57
2018-09-05T06:01:04.928Z,68.29
2018-09-05T06:03:28.757Z,68.91
2018-09-05T06:05:52.698Z,68.93
2018-09-05T06:08:16.526Z,67.61
2018-09-05T06:10:40.446Z,71.40
2018-09-05T06:13:05.110Z,71.87
2018-09-05T06:15:29.304Z,70.57
2018-09-05T06:17:53.251Z,69.29
2018-09-05T06:20:17.110Z,69.16
2018-09-05T06:22:41.010Z,69.13
2018-09-05T06:25:04.900Z,68.40
2018-09-05T06:27:29.092Z,68.70
2018-09-05T06:29:52.984Z,68.03
2018-09-05T06:32:16.870Z,68.52
2018-09-05T06:34:40.752Z,68.47
2018-09-05T06:37:04.626Z,68.83
2018-09-05T06:39:28.558Z,67.40
2018-09-05T06:41:52.433Z,67.79
2018-09-05T06:44:16.332Z,67.88
2018-09-05T06:46:40.248Z,69.28
2018-09-05T06:49:04.143Z,68.29
2018-09-05T06:51:28.120Z,67.69
2018-09-05T06:53:51.991Z,67.62
2018-09-05T06:56:15.836Z,67.75
2018-09-05T06:58:39.716Z,67.15
2018-09-05T07:01:03.597Z,67.75
2018-09-05T07:03:27.495Z,67.30
2018-09-05T07:05:51.362Z,66.85
2018-09-05T07:08:15.277Z,67.01
2018-09-05T07:10:39.207Z,66.76
2018-09-05T07:13:03.060Z,67.30
2018-09-05T07:15:26.934Z,66.29
2018-09-05T07:17:50.780Z,65.89
2018-09-05T07:20:14.774Z,66.77
2018-09-05T07:22:38.678Z,66.28
2018-09-05T07:25:02.547Z,66.25
2018-09-05T07:27:26.469Z,66.75
2018-09-05T07:29:50.337Z,66.35
2018-09-05T07:32:14.251Z,65.93
2018-09-05T07:34:38.316Z,66.38
2018-09-05T07:37:02.213Z,65.80
2018-09-05T07:39:26.152Z,65.60
2018-09-05T07:41:50.022Z,66.05
2018-09-05T07:44:13.859Z,65.66
2018-09-05T07:46:37.784Z,65.87
2018-09-05T07:49:01.666Z,65.76
2018-09-05T07:51:25.576Z,65.38
2018-09-05T07:53:49.455Z,64.98
2018-09-05T07:56:13.312Z,65.77
2018-09-05T07:58:37.206Z,65.23
2018-09-05T08:01:01.084Z,64.20
2018-09-05T08:03:24.966Z,64.96
2018-09-05T08:05:48.819Z,64.39
2018-09-05T08:08:12.704Z,64.21
2018-09-05T08:10:36.610Z,64.59
2018-09-05T08:13:00.464Z,63.67
2018-09-05T08:15:24.370Z,64.42
2018-09-05T08:17:48.312Z,63.51
2018-09-05T08:20:12.148Z,64.31
2018-09-05T08:22:36.046Z,63.61
2018-09-05T08:25:01.229Z,63.55
2018-09-05T08:27:25.085Z,63.22
2018-09-05T08:29:49.065Z,63.25
2018-09-05T08:32:12.942Z,62.16
2018-09-05T08:34:36.888Z,63.09
2018-09-05T08:37:01.111Z,62.40
2018-09-05T08:39:24.684Z,61.94
2018-09-05T08:41:48.593Z,61.60
2018-09-05T08:44:12.732Z,61.37
2018-09-05T08:46:36.408Z,60.57
2018-09-05T08:49:00.303Z,59.83
2018-09-05T08:51:24.176Z,59.70
2018-09-05T08:53:49.178Z,59.80
2018-09-05T08:56:13.169Z,59.92
2018-09-05T08:58:37.022Z,59.29
2018-09-05T09:01:00.938Z,59.27
2018-09-05T09:03:24.863Z,58.25
2018-09-05T09:05:48.748Z,58.18
2018-09-05T09:08:12.896Z,58.55
2018-09-05T09:10:36.778Z,57.50
2018-09-05T09:13:00.686Z,58.97
2018-09-05T09:15:24.565Z,57.93
2018-09-05T09:17:48.485Z,59.05
2018-09-05T09:20:12.392Z,57.47
2018-09-05T09:22:36.274Z,58.31
2018-09-05T09:25:00.137Z,58.55
2018-09-05T09:27:24.059Z,56.85
2018-09-05T09:29:47.923Z,57.55
2018-09-05T09:32:12.028Z,56.55
2018-09-05T09:34:35.911Z,56.52
2018-09-05T09:36:59.788Z,57.40
2018-09-05T09:39:23.732Z,56.84
2018-09-05T09:41:47.591Z,57.95
2018-09-05T09:44:11.927Z,57.85
2018-09-05T09:46:36.264Z,55.75
2018-09-05T09:49:00.133Z,54.38
2018-09-05T09:51:24.447Z,53.92
2018-09-05T09:53:48.319Z,54.82
2018-09-05T09:56:12.223Z,55.29
2018-09-05T09:58:36.386Z,53.64
2018-09-05T10:01:05.496Z,53.30
2018-09-05T10:03:35.079Z,53.00
2018-09-05T10:06:03.986Z,52.02
2018-09-05T10:08:36.662Z,52.82
2018-09-05T10:11:02.593Z,52.25
2018-09-05T10:13:31.735Z,51.59
2018-09-05T10:16:01.048Z,51.88
2018-09-05T10:18:28.151Z,51.63
2018-09-05T10:20:52.097Z,51.06
2018-09-05T10:23:15.967Z,51.11
2018-09-05T10:25:40.269Z,50.12
2018-09-05T10:28:04.317Z,52.13
2018-09-05T10:30:28.152Z,53.91
2018-09-05T10:32:52.056Z,51.04
2018-09-05T10:35:15.929Z,50.11
2018-09-05T10:37:39.844Z,51.90
2018-09-05T10:40:03.800Z,49.57
2018-09-05T10:42:27.691Z,48.27
2018-09-05T10:44:51.672Z,46.73
2018-09-05T10:47:15.589Z,47.82
2018-09-05T10:49:39.464Z,47.51
2018-09-05T10:52:06.570Z,48.46
2018-09-05T10:54:30.465Z,47.03
2018-09-05T10:56:54.371Z,45.79
2018-09-05T10:59:18.304Z,44.91
2018-09-05T11:01:42.248Z,44.40
2018-09-05T11:04:06.568Z,44.43
2018-09-05T11:06:30.486Z,44.62
2018-09-05T11:08:54.490Z,44.52
2018-09-05T11:11:18.598Z,43.34
2018-09-05T11:13:42.501Z,42.70
2018-09-05T11:16:06.412Z,42.56
2018-09-05T11:18:30.330Z,43.46
2018-09-05T11:20:54.186Z,41.79
2018-09-05T11:23:18.072Z,40.23
2018-09-05T11:25:41.946Z,41.07
2018-09-05T11:28:05.831Z,41.29
2018-09-05T11:30:29.718Z,41.10
2018-09-05T11:32:53.633Z,41.62
2018-09-05T11:35:17.538Z,41.35
2018-09-05T11:37:41.443Z,41.60
2018-09-05T11:40:05.389Z,39.47
2018-09-05T11:42:29.325Z,39.51
2018-09-05T11:44:53.240Z,39.26
2018-09-05T11:47:17.106Z,40.29
2018-09-05T11:49:41.046Z,39.97
2018-09-05T11:52:04.934Z,38.05
2018-09-05T11:54:28.975Z,38.00
2018-09-05T11:56:52.852Z,39.17
2018-09-05T11:59:16.882Z,38.91
2018-09-05T12:01:40.899Z,37.96
2018-09-05T12:04:04.795Z,37.47
2018-09-05T12:06:28.662Z,37.38
2018-09-05T12:08:52.554Z,37.39
2018-09-05T12:11:16.438Z,35.93
2018-09-05T12:13:40.614Z,36.49
2018-09-05T12:16:04.492Z,36.68
2018-09-05T12:18:28.382Z,35.45
2018-09-05T12:20:52.320Z,35.31
2018-09-05T12:23:16.201Z,36.63
2018-09-05T12:25:40.125Z,36.51
2018-09-05T12:28:04.006Z,36.70
2018-09-05T12:30:27.871Z,36.77
2018-09-05T12:32:51.768Z,37.64
2018-09-05T12:35:15.700Z,35.88
2018-09-05T12:37:39.583Z,36.57
2018-09-05T12:40:03.531Z,36.05
2018-09-05T12:42:27.386Z,35.88
2018-09-05T12:44:51.318Z,38.52
2018-09-05T12:47:15.154Z,36.02
2018-09-05T12:49:39.024Z,35.84
2018-09-05T12:52:02.926Z,34.19
2018-09-05T12:54:26.795Z,34.57
2018-09-05T12:56:50.681Z,35.87
2018-09-05T12:59:14.635Z,35.06
2018-09-05T13:01:38.502Z,34.67
2018-09-05T13:04:04.152Z,36.24
2018-09-05T13:06:28.019Z,35.29
2018-09-05T13:08:51.902Z,35.64
2018-09-05T13:11:15.841Z,33.82
2018-09-05T13:13:39.685Z,34.28
2018-09-05T13:16:03.803Z,34.00
2018-09-05T13:18:27.732Z,35.22
2018-09-05T13:20:51.617Z,34.86
2018-09-05T13:23:15.490Z,32.89
2018-09-05T13:25:39.456Z,33.80
2018-09-05T13:28:03.321Z,33.51
2018-09-05T13:30:27.223Z,32.90
2018-09-05T13:32:51.210Z,34.82
2018-09-05T13:35:15.129Z,34.77
2018-09-05T13:37:38.973Z,34.23
2018-09-05T13:40:02.924Z,35.30
2018-09-05T13:42:26.835Z,33.93
2018-09-05T13:44:50.725Z,32.54
2018-09-05T13:47:14.615Z,32.46
2018-09-05T13:49:38.647Z,33.50
2018-09-05T13:52:04.733Z,33.60
2018-09-05T13:54:28.642Z,32.91
2018-09-05T13:56:52.590Z,32.69
2018-09-05T13:59:16.457Z,32.05
2018-09-05T14:01:40.441Z,31.28
2018-09-05T14:04:04.305Z,33.05
2018-09-05T14:06:28.169Z,33.07
2018-09-05T14:08:52.093Z,33.33
2018-09-05T14:11:16.002Z,32.01
2018-09-05T14:13:40.260Z,32.83
2018-09-05T14:16:04.195Z,32.62
2018-09-05T14:18:28.100Z,31.69
2018-09-05T14:20:52.102Z,30.68
2018-09-05T14:23:15.982Z,31.93
2018-09-05T14:25:39.820Z,32.11
2018-09-05T14:28:03.711Z,31.87
2018-09-05T14:30:27.608Z,31.63
2018-09-05T14:32:51.611Z,31.94
2018-09-05T14:35:15.500Z,31.83
2018-09-05T14:37:39.391Z,32.08
2018-09-05T14:40:03.376Z,32.31
2018-09-05T14:42:27.294Z,31.93
2018-09-05T14:44:51.323Z,32.94
2018-09-05T14:47:15.228Z,31.46
2018-09-05T14:49:39.123Z,31.99
2018-09-05T14:52:03.076Z,31.86
2018-09-05T14:54:27.060Z,31.23
2018-09-05T14:56:50.958Z,31.25
2018-09-05T14:59:14.841Z,31.35
2018-09-05T15:01:38.864Z,32.16
2018-09-05T15:04:02.794Z,30.68
2018-09-05T15:06:26.664Z,31.61
2018-09-05T15:08:50.760Z,31.42
2018-09-05T15:11:14.638Z,30.76
2018-09-05T15:13:38.676Z,31.10
2018-09-05T15:16:02.553Z,31.00
2018-09-05T15:18:26.446Z,31.39
2018-09-05T15:20:50.484Z,31.26
2018-09-05T15:23:14.424Z,31.10
2018-09-05T15:25:38.418Z,33.16
2018-09-05T15:28:02.336Z,32.87
2018-09-05T15:30:26.338Z,32.84
2018-09-05T15:32:50.344Z,32.00
2018-09-05T15:35:14.236Z,32.09
2018-09-05T15:37:38.084Z,31.37
2018-09-05T15:40:02.213Z,30.83
2018-09-05T15:42:26.152Z,31.92
2018-09-05T15:44:50.139Z,30.79
2018-09-05T15:47:14.064Z,31.50
2018-09-05T15:49:37.947Z,30.63
2018-09-05T15:52:01.932Z,31.76
2018-09-05T15:54:27.321Z,31.76
2018-09-05T15:56:51.592Z,31.53
2018-09-05T15:59:15.525Z,31.15
2018-09-05T16:01:39.408Z,32.06
2018-09-05T16:04:03.342Z,31.74
2018-09-05T16:06:27.302Z,33.05
2018-09-05T16:08:51.187Z,32.66
2018-09-05T16:11:15.110Z,33.08
2018-09-05T16:13:39.044Z,33.25
2018-09-05T16:16:03.240Z,33.55
2018-09-05T16:18:27.160Z,35.27
2018-09-05T16:20:51.100Z,34.75
2018-09-05T16:23:15.011Z,35.05
2018-09-05T16:25:38.978Z,35.08
2018-09-05T16:28:02.904Z,35.57
2018-09-05T16:30:26.913Z,35.07
2018-09-05T16:32:50.830Z,36.13
2018-09-05T16:35:14.737Z,36.03
2018-09-05T16:37:38.683Z,36.68
2018-09-05T16:40:02.669Z,36.78
2018-09-05T16:42:26.616Z,35.88
2018-09-05T16:44:50.507Z,36.85
2018-09-05T16:47:14.448Z,36.92
2018-09-05T16:49:38.392Z,36.11
2018-09-05T16:52:02.302Z,36.58
2018-09-05T16:54:26.190Z,37.00
2018-09-05T16:56:50.152Z,36.32
2018-09-05T16:59:14.112Z,36.46
2018-09-05T17:01:38.024Z,36.56
2018-09-05T17:04:01.932Z,36.97
2018-09-05T17:06:25.888Z,37.11
2018-09-05T17:08:49.817Z,37.10
2018-09-05T17:11:13.832Z,38.04
2018-09-05T17:13:37.692Z,38.08
2018-09-05T17:16:01.573Z,37.35
2018-09-05T17:18:25.527Z,37.76
2018-09-05T17:20:49.463Z,38.34
2018-09-05T17:23:13.776Z,38.80
2018-09-05T17:25:37.780Z,38.90
2018-09-05T17:28:01.760Z,38.81
2018-09-05T17:30:25.670Z,39.08
2018-09-05T17:32:49.577Z,39.49
2018-09-05T17:35:13.546Z,38.72
2018-09-05T17:37:37.537Z,38.87
2018-09-05T17:40:01.485Z,39.54
2018-09-05T17:42:25.423Z,39.57
2018-09-05T17:44:49.401Z,39.07
2018-09-05T17:47:13.316Z,39.97
2018-09-05T17:49:37.385Z,39.54
2018-09-05T17:52:01.326Z,40.01
2018-09-05T17:54:25.228Z,39.62
2018-09-05T17:56:49.254Z,40.20
2018-09-05T17:59:13.254Z,40.89
2018-09-05T18:01:37.236Z,40.24
2018-09-05T18:04:01.661Z,40.70
2018-09-05T18:06:25.569Z,40.73
2018-09-05T18:08:49.508Z,40.48
2018-09-05T18:11:14.027Z,41.66
2018-09-05T18:13:37.973Z,40.85
2018-09-05T18:16:01.945Z,41.66
2018-09-05T18:18:25.874Z,41.61
2018-09-05T18:20:49.766Z,41.04
2018-09-05T18:23:13.714Z,41.88
2018-09-05T18:25:37.627Z,41.63
2018-09-05T18:28:01.519Z,41.85
2018-09-05T18:30:25.599Z,41.27
2018-09-05T18:32:49.559Z,42.06
2018-09-05T18:35:13.506Z,42.20
2018-09-05T18:37:37.427Z,42.16
2018-09-05T18:40:01.391Z,42.16
2018-09-05T18:42:25.383Z,42.29
2018-09-05T18:44:49.328Z,42.66
2018-09-05T18:47:13.276Z,42.58
2018-09-05T18:49:37.226Z,43.02
2018-09-05T18:52:01.250Z,42.65
2018-09-05T18:54:25.899Z,43.14
2018-09-05T18:56:50.103Z,43.36
2018-09-05T18:59:14.099Z,43.63
2018-09-05T19:01:38.034Z,43.87
2018-09-05T19:04:03.455Z,43.79
2018-09-05T19:06:27.364Z,44.27
2018-09-05T19:08:51.327Z,44.17
2018-09-05T19:11:15.315Z,43.97
2018-09-05T19:13:40.090Z,43.98
2018-09-05T19:16:04.009Z,44.49
2018-09-05T19:18:28.112Z,44.72
2018-09-05T19:20:52.038Z,44.57
2018-09-05T19:23:15.968Z,44.87
2018-09-05T19:25:39.911Z,44.46
2018-09-05T19:28:03.789Z,44.85
2018-09-05T19:30:27.984Z,45.09
2018-09-05T19:32:52.543Z,45.36
2018-09-05T19:35:16.532Z,45.22
2018-09-05T19:37:40.451Z,45.37
2018-09-05T19:40:04.436Z,45.84
2018-09-05T19:42:28.592Z,46.44
2018-09-05T19:44:52.487Z,46.38
2018-09-05T19:47:16.483Z,46.42
2018-09-05T19:49:40.426Z,45.74
2018-09-05T19:52:04.365Z,46.23
2018-09-05T19:54:28.397Z,46.09
2018-09-05T19:56:52.434Z,47.42
2018-09-05T19:59:16.415Z,46.80
2018-09-05T20:01:40.425Z,46.27
2018-09-05T20:04:04.851Z,46.83
2018-09-05T20:06:28.892Z,46.29
2018-09-05T20:08:52.793Z,46.21
2018-09-05T20:11:16.740Z,47.04
2018-09-05T20:13:40.678Z,47.26
2018-09-05T20:16:04.642Z,47.11
2018-09-05T20:18:28.673Z,47.73
2018-09-05T20:20:52.613Z,46.74
2018-09-05T20:23:16.514Z,46.92
2018-09-05T20:25:40.545Z,47.62
2018-09-05T20:28:04.492Z,46.57
2018-09-05T20:30:28.427Z,47.48
2018-09-05T20:32:52.480Z,47.34
2018-09-05T20:35:16.394Z,47.20
2018-09-05T20:37:40.305Z,47.54
2018-09-05T20:40:04.482Z,46.76
2018-09-05T20:42:28.374Z,47.11
2018-09-05T20:44:52.292Z,47.38
2018-09-05T20:47:16.242Z,46.98
2018-09-05T20:49:40.157Z,47.68
2018-09-05T20:52:04.114Z,47.80
2018-09-05T20:54:28.026Z,47.53
2018-09-05T20:56:52.032Z,47.41
2018-09-05T20:59:15.980Z,47.18
2018-09-05T21:01:39.855Z,47.75
2018-09-05T21:04:03.758Z,47.72
2018-09-05T21:06:27.648Z,48.07
2018-09-05T21:08:51.696Z,47.32
2018-09-05T21:11:15.590Z,47.26
2018-09-05T21:13:39.490Z,47.60
2018-09-05T21:16:03.404Z,48.20
2018-09-05T21:18:27.279Z,48.37
2018-09-05T21:20:51.266Z,47.62
2018-09-05T21:23:15.158Z,47.70
2018-09-05T21:25:39.100Z,48.11
2018-09-05T21:28:03.129Z,47.79
2018-09-05T21:32:42.690Z,48.00
2018-09-05T21:35:06.720Z,48.91
2018-09-05T21:37:30.772Z,47.98
2018-09-05T21:39:54.659Z,48.43
2018-09-05T21:42:18.603Z,49.06
2018-09-05T21:44:42.504Z,48.27
2018-09-05T21:47:06.385Z,48.65
2018-09-05T21:49:30.410Z,48.97
2018-09-05T21:51:54.484Z,48.66
2018-09-05T21:54:18.390Z,49.31
2018-09-05T21:56:42.340Z,49.82
2018-09-05T21:59:06.269Z,49.34
2018-09-05T22:01:30.543Z,49.38
2018-09-05T22:03:54.547Z,50.10
2018-09-05T22:06:18.468Z,49.72
2018-09-05T22:08:42.388Z,49.30
2018-09-05T22:11:11.625Z,50.24
2018-09-05T22:13:35.553Z,50.52
2018-09-05T22:15:59.430Z,50.56
2018-09-05T22:18:23.334Z,49.70
2018-09-05T22:20:47.204Z,50.77
2018-09-05T22:23:11.172Z,50.90
2018-09-05T22:25:35.106Z,50.97
2018-09-05T22:27:59.013Z,50.10
2018-09-05T22:30:22.977Z,50.78
2018-09-05T22:32:46.903Z,50.60
2018-09-05T22:35:10.758Z,50.41
2018-09-05T22:37:34.676Z,50.99
2018-09-05T22:39:58.647Z,51.79
2018-09-05T22:42:22.554Z,51.52
2018-09-05T22:44:57.652Z,51.58
2018-09-05T22:47:32.911Z,51.22
2018-09-05T22:50:34.808Z,51.40
2018-09-05T22:53:27.278Z,52.17
2018-09-05T22:56:07.251Z,51.31
2018-09-05T23:00:45.022Z,51.67
2018-09-05T23:03:23.675Z,52.90
2018-09-05T23:08:05.483Z,52.52
2018-09-05T23:10:40.513Z,52.84
2018-09-05T23:13:15.764Z,52.63
2018-09-05T23:15:50.867Z,52.42
2018-09-05T23:18:25.797Z,53.48
2018-09-05T23:21:25.442Z,53.22
2018-09-05T23:24:02.951Z,53.00
2018-09-05T23:26:27.089Z,53.10
2018-09-05T23:28:50.999Z,53.26
2018-09-05T23:31:14.879Z,52.68
2018-09-05T23:33:38.769Z,53.30
2018-09-05T23:36:02.702Z,53.25
2018-09-05T23:38:26.772Z,53.76
2018-09-05T23:40:50.637Z,53.86
2018-09-05T23:43:14.560Z,53.64
2018-09-05T23:45:38.570Z,53.98
2018-09-05T23:48:02.441Z,54.30
2018-09-05T23:50:26.291Z,53.96
2018-09-05T23:52:50.718Z,53.98
2018-09-05T23:55:14.615Z,53.80
2018-09-05T23:57:38.488Z,54.09
